sensor_id;sensor_type;location;lat;lon;timestamp;pressure;altitude;pressure_sealevel;temperature;humidity
31225;BME280;17847;31.524;74.366;2023-12-20T00:00:09;99274.44;;;10.80;nan
31225;BME280;17847;31.524;74.366;2023-12-20T00:02:39;99274.59;;;10.64;nan
31225;BME280;17847;31.524;74.366;2023-12-20T00:05:09;99279.88;;;10.64;nan
31225;BME280;17847;31.524;74.366;2023-12-20T00:07:38;99283.94;;;10.75;nan
31225;BME280;17847;31.524;74.366;2023-12-20T00:10:09;99280.34;;;10.68;nan
31225;BME280;17847;31.524;74.366;2023-12-20T00:12:39;99287.25;;;10.54;nan
31225;BME280;17847;31.524;74.366;2023-12-20T00:15:10;99284.53;;;10.62;nan
31225;BME280;17847;31.524;74.366;2023-12-20T00:17:39;99293.50;;;10.61;nan
31225;BME280;17847;31.524;74.366;2023-12-20T00:20:09;99289.19;;;10.60;nan
31225;BME280;17847;31.524;74.366;2023-12-20T00:22:39;99287.06;;;10.56;nan
31225;BME280;17847;31.524;74.366;2023-12-20T00:25:09;99294.19;;;10.78;nan
31225;BME280;17847;31.524;74.366;2023-12-20T00:27:38;99290.22;;;11.26;nan
31225;BME280;17847;31.524;74.366;2023-12-20T00:30:08;99289.50;;;11.32;nan
31225;BME280;17847;31.524;74.366;2023-12-20T00:32:38;99294.41;;;11.20;nan
31225;BME280;17847;31.524;74.366;2023-12-20T00:35:09;99295.25;;;11.06;nan
31225;BME280;17847;31.524;74.366;2023-12-20T00:37:38;99303.13;;;11.14;nan
31225;BME280;17847;31.524;74.366;2023-12-20T00:40:08;99301.63;;;10.97;nan
31225;BME280;17847;31.524;74.366;2023-12-20T00:42:38;99302.44;;;10.98;nan
31225;BME280;17847;31.524;74.366;2023-12-20T00:45:08;99304.44;;;10.96;nan
31225;BME280;17847;31.524;74.366;2023-12-20T00:47:38;99303.63;;;10.95;nan
31225;BME280;17847;31.524;74.366;2023-12-20T00:50:08;99313.75;;;10.92;nan
31225;BME280;17847;31.524;74.366;2023-12-20T00:52:38;99316.13;;;10.87;nan
31225;BME280;17847;31.524;74.366;2023-12-20T00:55:07;99319.16;;;10.38;nan
31225;BME280;17847;31.524;74.366;2023-12-20T00:57:37;99318.22;;;10.31;nan
31225;BME280;17847;31.524;74.366;2023-12-20T01:00:07;99322.44;;;10.40;nan
31225;BME280;17847;31.524;74.366;2023-12-20T01:02:38;99325.75;;;10.42;nan
31225;BME280;17847;31.524;74.366;2023-12-20T01:05:10;99319.47;;;10.12;nan
31225;BME280;17847;31.524;74.366;2023-12-20T01:07:41;99321.41;;;10.18;nan
31225;BME280;17847;31.524;74.366;2023-12-20T01:10:11;99331.41;;;10.39;nan
31225;BME280;17847;31.524;74.366;2023-12-20T01:12:41;99320.88;;;10.31;nan
31225;BME280;17847;31.524;74.366;2023-12-20T01:15:11;99328.22;;;10.13;nan
31225;BME280;17847;31.524;74.366;2023-12-20T01:17:41;99338.47;;;10.16;nan
31225;BME280;17847;31.524;74.366;2023-12-20T01:20:11;99339.81;;;10.12;nan
31225;BME280;17847;31.524;74.366;2023-12-20T01:22:40;99345.25;;;10.10;nan
31225;BME280;17847;31.524;74.366;2023-12-20T01:25:12;99339.66;;;10.05;nan
31225;BME280;17847;31.524;74.366;2023-12-20T01:27:42;99355.84;;;10.10;nan
31225;BME280;17847;31.524;74.366;2023-12-20T01:30:12;99352.09;;;9.97;nan
31225;BME280;17847;31.524;74.366;2023-12-20T01:32:41;99361.34;;;10.01;nan
31225;BME280;17847;31.524;74.366;2023-12-20T01:35:11;99367.16;;;9.96;nan
31225;BME280;17847;31.524;74.366;2023-12-20T01:37:42;99369.78;;;9.96;nan
31225;BME280;17847;31.524;74.366;2023-12-20T01:40:12;99373.97;;;9.90;nan
31225;BME280;17847;31.524;74.366;2023-12-20T01:42:41;99366.19;;;9.89;nan
31225;BME280;17847;31.524;74.366;2023-12-20T01:45:12;99371.13;;;9.92;nan
31225;BME280;17847;31.524;74.366;2023-12-20T01:47:41;99368.34;;;9.93;nan
31225;BME280;17847;31.524;74.366;2023-12-20T01:50:10;99356.72;;;10.03;nan
31225;BME280;17847;31.524;74.366;2023-12-20T01:52:42;99359.16;;;10.12;nan
31225;BME280;17847;31.524;74.366;2023-12-20T01:55:13;99364.66;;;10.03;nan
31225;BME280;17847;31.524;74.366;2023-12-20T01:57:45;99367.66;;;10.00;nan
31225;BME280;17847;31.524;74.366;2023-12-20T02:00:16;99365.97;;;10.07;nan
31225;BME280;17847;31.524;74.366;2023-12-20T02:02:47;99369.63;;;9.98;nan
31225;BME280;17847;31.524;74.366;2023-12-20T02:05:18;99373.13;;;9.98;nan
31225;BME280;17847;31.524;74.366;2023-12-20T02:07:48;99374.63;;;9.92;nan
31225;BME280;17847;31.524;74.366;2023-12-20T02:10:17;99380.88;;;10.00;nan
31225;BME280;17847;31.524;74.366;2023-12-20T02:12:47;99373.75;;;10.00;nan
31225;BME280;17847;31.524;74.366;2023-12-20T02:15:16;99386.31;;;10.06;nan
31225;BME280;17847;31.524;74.366;2023-12-20T02:17:47;99393.56;;;10.12;nan
31225;BME280;17847;31.524;74.366;2023-12-20T02:20:17;99395.88;;;10.15;nan
31225;BME280;17847;31.524;74.366;2023-12-20T02:22:48;99401.19;;;10.15;nan
31225;BME280;17847;31.524;74.366;2023-12-20T02:25:17;99409.84;;;10.32;nan
31225;BME280;17847;31.524;74.366;2023-12-20T02:27:47;99411.69;;;10.31;nan
31225;BME280;17847;31.524;74.366;2023-12-20T02:30:17;99412.75;;;10.45;nan
31225;BME280;17847;31.524;74.366;2023-12-20T02:32:47;99413.75;;;10.52;nan
31225;BME280;17847;31.524;74.366;2023-12-20T02:35:17;99419.88;;;10.53;nan
31225;BME280;17847;31.524;74.366;2023-12-20T02:37:47;99419.81;;;10.61;nan
31225;BME280;17847;31.524;74.366;2023-12-20T02:40:16;99434.13;;;10.74;nan
31225;BME280;17847;31.524;74.366;2023-12-20T02:42:46;99441.72;;;10.77;nan
31225;BME280;17847;31.524;74.366;2023-12-20T02:45:15;99436.81;;;10.89;nan
31225;BME280;17847;31.524;74.366;2023-12-20T02:47:45;99443.78;;;10.90;nan
31225;BME280;17847;31.524;74.366;2023-12-20T02:50:15;99444.44;;;10.92;nan
31225;BME280;17847;31.524;74.366;2023-12-20T02:52:45;99444.78;;;11.12;nan
31225;BME280;17847;31.524;74.366;2023-12-20T02:55:14;99452.97;;;11.25;nan
31225;BME280;17847;31.524;74.366;2023-12-20T02:57:44;99443.59;;;11.37;nan
31225;BME280;17847;31.524;74.366;2023-12-20T03:00:15;99453.88;;;11.55;nan
31225;BME280;17847;31.524;74.366;2023-12-20T03:02:44;99455.41;;;11.49;nan
31225;BME280;17847;31.524;74.366;2023-12-20T03:05:13;99463.38;;;11.64;nan
31225;BME280;17847;31.524;74.366;2023-12-20T03:07:43;99461.38;;;11.66;nan
31225;BME280;17847;31.524;74.366;2023-12-20T03:10:12;99463.06;;;11.82;nan
31225;BME280;17847;31.524;74.366;2023-12-20T03:12:47;99465.72;;;11.82;nan
31225;BME280;17847;31.524;74.366;2023-12-20T03:15:16;99465.84;;;12.03;nan
31225;BME280;17847;31.524;74.366;2023-12-20T03:17:46;99472.44;;;12.07;nan
31225;BME280;17847;31.524;74.366;2023-12-20T03:20:16;99472.72;;;12.12;nan
31225;BME280;17847;31.524;74.366;2023-12-20T03:22:45;99475.00;;;12.30;nan
31225;BME280;17847;31.524;74.366;2023-12-20T03:25:14;99479.44;;;12.44;nan
31225;BME280;17847;31.524;74.366;2023-12-20T03:27:44;99478.09;;;12.84;nan
31225;BME280;17847;31.524;74.366;2023-12-20T03:30:14;99485.75;;;13.29;nan
31225;BME280;17847;31.524;74.366;2023-12-20T03:32:44;99491.84;;;13.72;nan
31225;BME280;17847;31.524;74.366;2023-12-20T03:35:13;99493.47;;;14.29;nan
31225;BME280;17847;31.524;74.366;2023-12-20T03:37:43;99497.44;;;14.94;nan
31225;BME280;17847;31.524;74.366;2023-12-20T03:40:13;99505.69;;;15.05;nan
31225;BME280;17847;31.524;74.366;2023-12-20T03:42:42;99512.97;;;15.44;nan
31225;BME280;17847;31.524;74.366;2023-12-20T03:45:12;99513.38;;;16.07;nan
31225;BME280;17847;31.524;74.366;2023-12-20T03:47:41;99522.34;;;16.39;nan
31225;BME280;17847;31.524;74.366;2023-12-20T03:50:12;99526.38;;;16.74;nan
31225;BME280;17847;31.524;74.366;2023-12-20T03:52:41;99523.47;;;17.58;nan
31225;BME280;17847;31.524;74.366;2023-12-20T03:55:11;99527.13;;;17.88;nan
31225;BME280;17847;31.524;74.366;2023-12-20T03:57:40;99526.72;;;18.34;nan
31225;BME280;17847;31.524;74.366;2023-12-20T04:00:11;99539.81;;;18.67;nan
31225;BME280;17847;31.524;74.366;2023-12-20T04:02:42;99533.03;;;18.95;nan
31225;BME280;17847;31.524;74.366;2023-12-20T04:05:11;99537.91;;;18.68;nan
31225;BME280;17847;31.524;74.366;2023-12-20T04:07:41;99545.81;;;19.29;nan
31225;BME280;17847;31.524;74.366;2023-12-20T04:10:11;99541.78;;;18.90;nan
31225;BME280;17847;31.524;74.366;2023-12-20T04:12:41;99544.34;;;19.15;nan
31225;BME280;17847;31.524;74.366;2023-12-20T04:15:10;99551.56;;;19.62;nan
31225;BME280;17847;31.524;74.366;2023-12-20T04:17:40;99555.25;;;20.03;nan
31225;BME280;17847;31.524;74.366;2023-12-20T04:20:10;99553.16;;;20.16;nan
31225;BME280;17847;31.524;74.366;2023-12-20T04:22:40;99552.78;;;20.25;nan
31225;BME280;17847;31.524;74.366;2023-12-20T04:25:11;99551.13;;;20.82;nan
31225;BME280;17847;31.524;74.366;2023-12-20T04:27:40;99547.78;;;21.15;nan
31225;BME280;17847;31.524;74.366;2023-12-20T04:30:11;99553.72;;;21.17;nan
31225;BME280;17847;31.524;74.366;2023-12-20T04:32:40;99548.25;;;20.48;nan
31225;BME280;17847;31.524;74.366;2023-12-20T04:35:10;99558.03;;;20.78;nan
31225;BME280;17847;31.524;74.366;2023-12-20T04:37:39;99566.56;;;20.86;nan
31225;BME280;17847;31.524;74.366;2023-12-20T04:40:11;99559.25;;;21.10;nan
31225;BME280;17847;31.524;74.366;2023-12-20T04:42:41;99551.16;;;21.10;nan
31225;BME280;17847;31.524;74.366;2023-12-20T04:45:10;99549.56;;;20.97;nan
31225;BME280;17847;31.524;74.366;2023-12-20T04:47:42;99553.50;;;20.32;nan
31225;BME280;17847;31.524;74.366;2023-12-20T04:50:12;99549.97;;;19.96;nan
31225;BME280;17847;31.524;74.366;2023-12-20T04:52:42;99548.44;;;19.77;nan
31225;BME280;17847;31.524;74.366;2023-12-20T04:55:11;99546.97;;;19.51;nan
31225;BME280;17847;31.524;74.366;2023-12-20T04:57:41;99549.75;;;19.26;nan
31225;BME280;17847;31.524;74.366;2023-12-20T05:00:12;99545.44;;;18.96;nan
31225;BME280;17847;31.524;74.366;2023-12-20T05:02:44;99535.31;;;19.39;nan
31225;BME280;17847;31.524;74.366;2023-12-20T05:05:13;99539.84;;;19.27;nan
31225;BME280;17847;31.524;74.366;2023-12-20T05:07:44;99537.53;;;19.01;nan
31225;BME280;17847;31.524;74.366;2023-12-20T05:10:14;99531.13;;;18.83;nan
31225;BME280;17847;31.524;74.366;2023-12-20T05:12:43;99520.19;;;18.67;nan
31225;BME280;17847;31.524;74.366;2023-12-20T05:15:13;99527.13;;;18.74;nan
31225;BME280;17847;31.524;74.366;2023-12-20T05:17:42;99529.03;;;18.85;nan
31225;BME280;17847;31.524;74.366;2023-12-20T05:20:12;99526.72;;;18.89;nan
31225;BME280;17847;31.524;74.366;2023-12-20T05:22:41;99524.56;;;18.98;nan
31225;BME280;17847;31.524;74.366;2023-12-20T05:25:11;99520.75;;;18.87;nan
31225;BME280;17847;31.524;74.366;2023-12-20T05:27:40;99519.09;;;18.86;nan
31225;BME280;17847;31.524;74.366;2023-12-20T05:30:11;99520.59;;;19.00;nan
31225;BME280;17847;31.524;74.366;2023-12-20T05:32:41;99521.59;;;18.88;nan
31225;BME280;17847;31.524;74.366;2023-12-20T05:35:11;99522.63;;;18.87;nan
31225;BME280;17847;31.524;74.366;2023-12-20T05:37:40;99518.41;;;19.09;nan
31225;BME280;17847;31.524;74.366;2023-12-20T05:40:11;99518.31;;;19.15;nan
31225;BME280;17847;31.524;74.366;2023-12-20T05:42:40;99523.72;;;19.27;nan
31225;BME280;17847;31.524;74.366;2023-12-20T05:45:10;99513.19;;;19.25;nan
31225;BME280;17847;31.524;74.366;2023-12-20T05:47:39;99512.78;;;19.40;nan
31225;BME280;17847;31.524;74.366;2023-12-20T05:50:09;99509.53;;;19.38;nan
31225;BME280;17847;31.524;74.366;2023-12-20T05:52:39;99498.50;;;19.58;nan
31225;BME280;17847;31.524;74.366;2023-12-20T05:55:08;99493.97;;;19.40;nan
31225;BME280;17847;31.524;74.366;2023-12-20T05:57:37;99492.16;;;19.52;nan
31225;BME280;17847;31.524;74.366;2023-12-20T06:00:08;99482.75;;;20.08;nan
31225;BME280;17847;31.524;74.366;2023-12-20T06:02:41;99476.56;;;20.31;nan
31225;BME280;17847;31.524;74.366;2023-12-20T06:05:10;99468.81;;;20.11;nan
31225;BME280;17847;31.524;74.366;2023-12-20T06:07:41;99474.19;;;20.46;nan
31225;BME280;17847;31.524;74.366;2023-12-20T06:10:11;99469.69;;;20.63;nan
31225;BME280;17847;31.524;74.366;2023-12-20T06:12:41;99470.16;;;21.00;nan
31225;BME280;17847;31.524;74.366;2023-12-20T06:15:10;99466.13;;;21.02;nan
31225;BME280;17847;31.524;74.366;2023-12-20T06:17:40;99457.75;;;21.27;nan
31225;BME280;17847;31.524;74.366;2023-12-20T06:20:10;99450.31;;;21.34;nan
31225;BME280;17847;31.524;74.366;2023-12-20T06:22:40;99440.94;;;21.08;nan
31225;BME280;17847;31.524;74.366;2023-12-20T06:25:09;99445.25;;;21.38;nan
31225;BME280;17847;31.524;74.366;2023-12-20T06:27:39;99444.03;;;21.62;nan
31225;BME280;17847;31.524;74.366;2023-12-20T06:30:10;99437.25;;;21.60;nan
31225;BME280;17847;31.524;74.366;2023-12-20T06:32:40;99438.97;;;21.49;nan
31225;BME280;17847;31.524;74.366;2023-12-20T06:35:11;99438.72;;;20.89;nan
31225;BME280;17847;31.524;74.366;2023-12-20T06:37:40;99430.56;;;21.00;nan
31225;BME280;17847;31.524;74.366;2023-12-20T06:40:12;99433.06;;;20.90;nan
31225;BME280;17847;31.524;74.366;2023-12-20T06:42:45;99431.00;;;21.09;nan
31225;BME280;17847;31.524;74.366;2023-12-20T06:45:25;99430.56;;;21.62;nan
31225;BME280;17847;31.524;74.366;2023-12-20T06:47:55;99421.88;;;21.60;nan
31225;BME280;17847;31.524;74.366;2023-12-20T06:50:28;99414.47;;;21.50;nan
31225;BME280;17847;31.524;74.366;2023-12-20T06:52:58;99410.19;;;21.71;nan
31225;BME280;17847;31.524;74.366;2023-12-20T06:55:28;99407.94;;;21.63;nan
31225;BME280;17847;31.524;74.366;2023-12-20T06:57:58;99398.53;;;21.66;nan
31225;BME280;17847;31.524;74.366;2023-12-20T07:00:28;99398.28;;;21.67;nan
31225;BME280;17847;31.524;74.366;2023-12-20T07:02:57;99399.06;;;21.84;nan
31225;BME280;17847;31.524;74.366;2023-12-20T07:05:27;99395.38;;;21.90;nan
31225;BME280;17847;31.524;74.366;2023-12-20T07:07:57;99386.59;;;21.62;nan
31225;BME280;17847;31.524;74.366;2023-12-20T07:10:26;99386.88;;;21.82;nan
31225;BME280;17847;31.524;74.366;2023-12-20T07:12:56;99378.75;;;21.77;nan
31225;BME280;17847;31.524;74.366;2023-12-20T07:15:25;99370.53;;;21.88;nan
31225;BME280;17847;31.524;74.366;2023-12-20T07:17:56;99368.50;;;21.79;nan
31225;BME280;17847;31.524;74.366;2023-12-20T07:20:26;99364.81;;;21.85;nan
31225;BME280;17847;31.524;74.366;2023-12-20T07:22:56;99359.13;;;21.81;nan
31225;BME280;17847;31.524;74.366;2023-12-20T07:25:25;99360.50;;;21.84;nan
31225;BME280;17847;31.524;74.366;2023-12-20T07:27:55;99354.28;;;21.83;nan
31225;BME280;17847;31.524;74.366;2023-12-20T07:30:25;99348.25;;;21.93;nan
31225;BME280;17847;31.524;74.366;2023-12-20T07:32:55;99341.19;;;21.54;nan
31225;BME280;17847;31.524;74.366;2023-12-20T07:35:25;99339.28;;;21.71;nan
31225;BME280;17847;31.524;74.366;2023-12-20T07:37:54;99335.44;;;21.67;nan
31225;BME280;17847;31.524;74.366;2023-12-20T07:40:24;99330.59;;;21.85;nan
31225;BME280;17847;31.524;74.366;2023-12-20T07:42:54;99317.97;;;21.91;nan
31225;BME280;17847;31.524;74.366;2023-12-20T07:45:23;99322.16;;;21.99;nan
31225;BME280;17847;31.524;74.366;2023-12-20T07:47:52;99311.06;;;21.95;nan
31225;BME280;17847;31.524;74.366;2023-12-20T07:50:22;99316.47;;;22.00;nan
31225;BME280;17847;31.524;74.366;2023-12-20T07:52:52;99321.13;;;22.05;nan
31225;BME280;17847;31.524;74.366;2023-12-20T07:55:22;99315.94;;;21.98;nan
31225;BME280;17847;31.524;74.366;2023-12-20T07:57:51;99307.84;;;21.98;nan
31225;BME280;17847;31.524;74.366;2023-12-20T08:00:21;99308.81;;;21.92;nan
31225;BME280;17847;31.524;74.366;2023-12-20T08:02:50;99306.44;;;21.95;nan
31225;BME280;17847;31.524;74.366;2023-12-20T08:05:19;99295.59;;;21.90;nan
31225;BME280;17847;31.524;74.366;2023-12-20T08:07:49;99292.25;;;21.83;nan
31225;BME280;17847;31.524;74.366;2023-12-20T08:10:18;99284.28;;;21.72;nan
31225;BME280;17847;31.524;74.366;2023-12-20T08:12:48;99288.44;;;21.79;nan
31225;BME280;17847;31.524;74.366;2023-12-20T08:15:17;99282.47;;;21.77;nan
31225;BME280;17847;31.524;74.366;2023-12-20T08:17:47;99268.13;;;21.72;nan
31225;BME280;17847;31.524;74.366;2023-12-20T08:20:17;99271.41;;;21.57;nan
31225;BME280;17847;31.524;74.366;2023-12-20T08:22:53;99264.91;;;21.53;nan
31225;BME280;17847;31.524;74.366;2023-12-20T08:25:22;99267.28;;;21.49;nan
31225;BME280;17847;31.524;74.366;2023-12-20T08:27:52;99261.59;;;21.46;nan
31225;BME280;17847;31.524;74.366;2023-12-20T08:30:21;99258.31;;;21.44;nan
31225;BME280;17847;31.524;74.366;2023-12-20T08:32:52;99254.63;;;21.50;nan
31225;BME280;17847;31.524;74.366;2023-12-20T08:35:21;99240.06;;;21.51;nan
31225;BME280;17847;31.524;74.366;2023-12-20T08:37:51;99235.38;;;21.41;nan
31225;BME280;17847;31.524;74.366;2023-12-20T08:40:23;99242.66;;;21.41;nan
31225;BME280;17847;31.524;74.366;2023-12-20T08:42:52;99233.66;;;21.35;nan
31225;BME280;17847;31.524;74.366;2023-12-20T08:45:23;99230.75;;;21.37;nan
31225;BME280;17847;31.524;74.366;2023-12-20T08:47:53;99229.84;;;21.31;nan
31225;BME280;17847;31.524;74.366;2023-12-20T08:50:26;99226.03;;;21.27;nan
31225;BME280;17847;31.524;74.366;2023-12-20T08:52:55;99219.63;;;21.33;nan
31225;BME280;17847;31.524;74.366;2023-12-20T08:55:25;99219.97;;;21.37;nan
31225;BME280;17847;31.524;74.366;2023-12-20T08:57:57;99218.50;;;21.29;nan
31225;BME280;17847;31.524;74.366;2023-12-20T09:00:27;99209.78;;;21.22;nan
31225;BME280;17847;31.524;74.366;2023-12-20T09:02:56;99216.00;;;21.23;nan
31225;BME280;17847;31.524;74.366;2023-12-20T09:05:26;99210.09;;;21.26;nan
31225;BME280;17847;31.524;74.366;2023-12-20T09:07:55;99208.16;;;21.04;nan
31225;BME280;17847;31.524;74.366;2023-12-20T09:10:25;99200.97;;;20.93;nan
31225;BME280;17847;31.524;74.366;2023-12-20T09:12:55;99197.22;;;20.94;nan
31225;BME280;17847;31.524;74.366;2023-12-20T09:15:26;99200.03;;;20.83;nan
31225;BME280;17847;31.524;74.366;2023-12-20T09:17:57;99203.63;;;20.72;nan
31225;BME280;17847;31.524;74.366;2023-12-20T09:20:27;99194.88;;;20.81;nan
31225;BME280;17847;31.524;74.366;2023-12-20T09:22:57;99197.88;;;20.85;nan
31225;BME280;17847;31.524;74.366;2023-12-20T09:25:27;99201.16;;;20.87;nan
31225;BME280;17847;31.524;74.366;2023-12-20T09:27:58;99199.09;;;20.94;nan
31225;BME280;17847;31.524;74.366;2023-12-20T09:30:28;99190.91;;;20.84;nan
31225;BME280;17847;31.524;74.366;2023-12-20T09:32:58;99181.19;;;20.83;nan
31225;BME280;17847;31.524;74.366;2023-12-20T09:35:27;99184.78;;;20.72;nan
31225;BME280;17847;31.524;74.366;2023-12-20T09:37:57;99180.47;;;20.71;nan
31225;BME280;17847;31.524;74.366;2023-12-20T09:40:28;99179.06;;;20.68;nan
31225;BME280;17847;31.524;74.366;2023-12-20T09:45:32;99173.13;;;20.66;nan
31225;BME280;17847;31.524;74.366;2023-12-20T09:48:03;99168.97;;;20.75;nan
31225;BME280;17847;31.524;74.366;2023-12-20T09:50:33;99159.75;;;20.71;nan
31225;BME280;17847;31.524;74.366;2023-12-20T09:53:05;99171.31;;;20.72;nan
31225;BME280;17847;31.524;74.366;2023-12-20T09:55:38;99165.19;;;20.76;nan
31225;BME280;17847;31.524;74.366;2023-12-20T09:58:09;99157.13;;;20.76;nan
31225;BME280;17847;31.524;74.366;2023-12-20T10:00:38;99156.56;;;20.74;nan
31225;BME280;17847;31.524;74.366;2023-12-20T10:03:08;99150.34;;;20.74;nan
31225;BME280;17847;31.524;74.366;2023-12-20T10:05:39;99148.16;;;20.71;nan
31225;BME280;17847;31.524;74.366;2023-12-20T10:08:12;99145.47;;;20.71;nan
31225;BME280;17847;31.524;74.366;2023-12-20T10:10:41;99143.34;;;20.73;nan
31225;BME280;17847;31.524;74.366;2023-12-20T10:13:15;99139.00;;;20.72;nan
31225;BME280;17847;31.524;74.366;2023-12-20T10:15:45;99139.50;;;20.69;nan
31225;BME280;17847;31.524;74.366;2023-12-20T10:18:15;99140.44;;;20.57;nan
31225;BME280;17847;31.524;74.366;2023-12-20T10:20:45;99132.84;;;20.54;nan
31225;BME280;17847;31.524;74.366;2023-12-20T10:23:16;99132.69;;;20.61;nan
31225;BME280;17847;31.524;74.366;2023-12-20T10:25:59;99138.13;;;20.49;nan
31225;BME280;17847;31.524;74.366;2023-12-20T10:28:33;99129.28;;;20.49;nan
31225;BME280;17847;31.524;74.366;2023-12-20T10:31:04;99131.22;;;20.37;nan
31225;BME280;17847;31.524;74.366;2023-12-20T10:33:33;99128.28;;;20.38;nan
31225;BME280;17847;31.524;74.366;2023-12-20T10:36:03;99127.16;;;20.34;nan
31225;BME280;17847;31.524;74.366;2023-12-20T10:38:34;99131.41;;;20.30;nan
31225;BME280;17847;31.524;74.366;2023-12-20T10:41:06;99120.19;;;20.22;nan
31225;BME280;17847;31.524;74.366;2023-12-20T10:43:37;99124.50;;;20.23;nan
31225;BME280;17847;31.524;74.366;2023-12-20T10:46:08;99119.94;;;20.23;nan
31225;BME280;17847;31.524;74.366;2023-12-20T10:48:39;99118.88;;;20.07;nan
31225;BME280;17847;31.524;74.366;2023-12-20T10:51:10;99120.56;;;19.97;nan
31225;BME280;17847;31.524;74.366;2023-12-20T10:53:41;99122.81;;;20.00;nan
31225;BME280;17847;31.524;74.366;2023-12-20T10:56:18;99119.44;;;19.93;nan
31225;BME280;17847;31.524;74.366;2023-12-20T10:58:49;99113.88;;;19.83;nan
31225;BME280;17847;31.524;74.366;2023-12-20T11:01:19;99109.63;;;19.70;nan
31225;BME280;17847;31.524;74.366;2023-12-20T11:03:53;99112.38;;;19.58;nan
31225;BME280;17847;31.524;74.366;2023-12-20T11:07:41;99105.66;;;19.44;nan
31225;BME280;17847;31.524;74.366;2023-12-20T11:09:43;99112.25;;;19.25;nan
31225;BME280;17847;31.524;74.366;2023-12-20T11:13:10;99114.50;;;19.05;nan
31225;BME280;17847;31.524;74.366;2023-12-20T11:15:12;99115.13;;;18.83;nan
31225;BME280;17847;31.524;74.366;2023-12-20T11:17:57;99112.91;;;18.69;nan
31225;BME280;17847;31.524;74.366;2023-12-20T11:20:37;99109.28;;;18.52;nan
31225;BME280;17847;31.524;74.366;2023-12-20T11:23:09;99122.09;;;18.38;nan
31225;BME280;17847;31.524;74.366;2023-12-20T11:25:53;99115.78;;;18.32;nan
31225;BME280;17847;31.524;74.366;2023-12-20T11:28:25;99106.81;;;18.38;nan
31225;BME280;17847;31.524;74.366;2023-12-20T11:31:00;99110.53;;;18.37;nan
31225;BME280;17847;31.524;74.366;2023-12-20T11:33:36;99106.25;;;18.48;nan
31225;BME280;17847;31.524;74.366;2023-12-20T11:36:18;99095.75;;;18.35;nan
31225;BME280;17847;31.524;74.366;2023-12-20T11:38:57;99105.66;;;18.34;nan
31225;BME280;17847;31.524;74.366;2023-12-20T11:41:55;99106.81;;;18.27;nan
31225;BME280;17847;31.524;74.366;2023-12-20T11:44:26;99110.56;;;18.14;nan
31225;BME280;17847;31.524;74.366;2023-12-20T11:47:00;99110.41;;;18.09;nan
31225;BME280;17847;31.524;74.366;2023-12-20T11:49:30;99103.63;;;17.95;nan
31225;BME280;17847;31.524;74.366;2023-12-20T11:52:00;99107.13;;;17.95;nan
31225;BME280;17847;31.524;74.366;2023-12-20T11:54:30;99114.44;;;17.88;nan
31225;BME280;17847;31.524;74.366;2023-12-20T11:56:59;99103.91;;;17.75;nan
31225;BME280;17847;31.524;74.366;2023-12-20T11:59:31;99096.00;;;17.69;nan
31225;BME280;17847;31.524;74.366;2023-12-20T12:02:01;99102.34;;;17.56;nan
31225;BME280;17847;31.524;74.366;2023-12-20T12:04:34;99103.53;;;17.42;nan
31225;BME280;17847;31.524;74.366;2023-12-20T12:07:04;99114.66;;;17.27;nan
31225;BME280;17847;31.524;74.366;2023-12-20T12:09:37;99115.16;;;17.18;nan
31225;BME280;17847;31.524;74.366;2023-12-20T12:12:19;99115.06;;;16.94;nan
31225;BME280;17847;31.524;74.366;2023-12-20T12:14:49;99107.91;;;16.88;nan
31225;BME280;17847;31.524;74.366;2023-12-20T12:17:25;99111.63;;;16.87;nan
31225;BME280;17847;31.524;74.366;2023-12-20T12:20:06;99116.38;;;16.67;nan
31225;BME280;17847;31.524;74.366;2023-12-20T12:22:45;99115.03;;;16.58;nan
31225;BME280;17847;31.524;74.366;2023-12-20T12:25:22;99116.31;;;16.49;nan
31225;BME280;17847;31.524;74.366;2023-12-20T12:27:52;99119.19;;;16.47;nan
31225;BME280;17847;31.524;74.366;2023-12-20T12:30:22;99122.66;;;16.30;nan
31225;BME280;17847;31.524;74.366;2023-12-20T12:32:53;99123.97;;;16.21;nan
31225;BME280;17847;31.524;74.366;2023-12-20T12:35:22;99122.94;;;16.22;nan
31225;BME280;17847;31.524;74.366;2023-12-20T12:37:52;99127.72;;;16.13;nan
31225;BME280;17847;31.524;74.366;2023-12-20T12:40:21;99129.09;;;15.97;nan
31225;BME280;17847;31.524;74.366;2023-12-20T12:42:51;99131.81;;;16.40;nan
31225;BME280;17847;31.524;74.366;2023-12-20T12:45:20;99133.19;;;16.49;nan
31225;BME280;17847;31.524;74.366;2023-12-20T12:47:49;99135.09;;;16.17;nan
31225;BME280;17847;31.524;74.366;2023-12-20T12:50:19;99140.06;;;16.14;nan
31225;BME280;17847;31.524;74.366;2023-12-20T12:52:50;99130.59;;;16.11;nan
31225;BME280;17847;31.524;74.366;2023-12-20T12:55:19;99139.28;;;16.07;nan
31225;BME280;17847;31.524;74.366;2023-12-20T12:57:49;99133.19;;;15.93;nan
31225;BME280;17847;31.524;74.366;2023-12-20T13:00:18;99138.06;;;15.78;nan
31225;BME280;17847;31.524;74.366;2023-12-20T13:02:48;99136.03;;;15.67;nan
31225;BME280;17847;31.524;74.366;2023-12-20T13:05:17;99136.47;;;15.70;nan
31225;BME280;17847;31.524;74.366;2023-12-20T13:07:47;99138.16;;;15.58;nan
31225;BME280;17847;31.524;74.366;2023-12-20T13:10:17;99132.03;;;15.51;nan
31225;BME280;17847;31.524;74.366;2023-12-20T13:12:46;99135.09;;;15.55;nan
31225;BME280;17847;31.524;74.366;2023-12-20T13:15:16;99137.75;;;15.61;nan
31225;BME280;17847;31.524;74.366;2023-12-20T13:17:45;99144.94;;;15.61;nan
31225;BME280;17847;31.524;74.366;2023-12-20T13:20:16;99143.53;;;15.52;nan
31225;BME280;17847;31.524;74.366;2023-12-20T13:22:46;99141.28;;;15.42;nan
31225;BME280;17847;31.524;74.366;2023-12-20T13:25:16;99147.06;;;15.39;nan
31225;BME280;17847;31.524;74.366;2023-12-20T13:27:45;99140.59;;;15.15;nan
31225;BME280;17847;31.524;74.366;2023-12-20T13:30:28;99137.47;;;15.18;nan
31225;BME280;17847;31.524;74.366;2023-12-20T13:32:58;99139.16;;;15.13;nan